Time;durP1;ratioP1;P1;durP2;ratioP2;P2;SDS_P1;SDS_P2;PMS_P1;PMS_P2;Temp;Humidity;BMP_temperature;BMP_pressure;BME280_temperature;BME280_humidity;BME280_pressure;Samples;Min_cycle;Max_cycle;Signal;HPM_P1;HPM_P2
2023/04/29 04:47:28;;;;;;;20.92;15.07;;;14.80;95.40;;;;;;4591890;19;20014;-19
2023/04/29 04:49:00;;;;;;;19.00;13.90;;;14.80;95.20;;;;;;4592833;19;20459;-19
2023/04/29 04:50:31;;;;;;;20.83;15.55;;;14.80;95.30;;;;;;4592946;19;20010;-19
2023/04/29 04:52:02;;;;;;;18.20;13.48;;;14.90;95.30;;;;;;4593104;19;20021;-18
2023/04/29 04:53:33;;;;;;;21.65;14.27;;;14.90;95.40;;;;;;4591777;19;20026;-20
2023/04/29 04:55:15;;;;;;;17.20;14.13;;;14.80;95.40;;;;;;4592766;19;20018;-19
2023/04/29 04:56:47;;;;;;;18.67;13.47;;;14.90;95.40;;;;;;4590440;19;20025;-19
2023/04/29 04:58:18;;;;;;;19.95;12.85;;;14.90;95.20;;;;;;4590492;19;20048;-19
2023/04/29 04:59:49;;;;;;;16.42;12.95;;;14.80;95.30;;;;;;4590327;19;20006;-18
2023/04/29 05:03:14;;;;;;;17.97;14.17;;;14.90;95.40;;;;;;4592848;19;20035;-20
2023/04/29 05:04:47;;;;;;;19.50;13.20;;;14.80;95.40;;;;;;4591192;19;20487;-19
2023/04/29 05:06:18;;;;;;;15.45;12.75;;;14.90;95.40;;;;;;4591181;19;20018;-19
2023/04/29 05:07:51;;;;;;;19.77;14.33;;;14.90;95.50;;;;;;4592462;19;20358;-19
2023/04/29 05:09:22;;;;;;;21.02;14.52;;;14.90;95.40;;;;;;4592674;19;20014;-21
2023/04/29 05:10:53;;;;;;;21.88;16.67;;;14.90;95.50;;;;;;4591925;19;20014;-19
2023/04/29 05:12:29;;;;;;;21.80;17.23;;;14.90;95.40;;;;;;4590214;19;20010;-19
2023/04/29 05:14:00;;;;;;;24.27;16.60;;;14.90;95.50;;;;;;4590193;19;20018;-19
2023/04/29 05:15:32;;;;;;;17.83;13.67;;;14.90;95.70;;;;;;4591291;19;20019;-19
2023/04/29 05:17:04;;;;;;;24.08;17.83;;;14.90;95.50;;;;;;4591338;19;20475;-20
2023/04/29 05:18:35;;;;;;;37.05;27.73;;;14.90;95.40;;;;;;4590596;19;20018;-19
2023/04/29 05:22:15;;;;;;;30.70;23.20;;;15.00;95.70;;;;;;4589947;19;20039;-19
2023/04/29 05:23:46;;;;;;;28.52;23.60;;;14.90;95.70;;;;;;4591169;19;20014;-20
2023/04/29 05:25:17;;;;;;;26.30;20.40;;;15.00;95.70;;;;;;4590493;19;20011;-19
2023/04/29 05:26:50;;;;;;;20.35;16.00;;;14.90;95.60;;;;;;4590457;19;20042;-20
2023/04/29 05:28:22;;;;;;;22.00;16.03;;;15.00;95.90;;;;;;4591672;19;20103;-19
2023/04/29 05:29:53;;;;;;;23.70;16.83;;;15.00;95.90;;;;;;4591375;19;20496;-19
2023/04/29 05:31:25;;;;;;;21.13;15.15;;;15.00;95.80;;;;;;4590818;19;20007;-19
2023/04/29 05:32:58;;;;;;;20.80;15.67;;;15.10;95.90;;;;;;4591198;19;20014;-19
2023/04/29 05:34:30;;;;;;;20.90;17.33;;;15.10;96.10;;;;;;4591979;19;20038;-20
2023/04/29 05:36:01;;;;;;;27.00;21.17;;;15.10;96.20;;;;;;4590676;19;20015;-19
2023/04/29 05:37:33;;;;;;;25.90;20.90;;;15.20;96.00;;;;;;4590424;19;20014;-19
2023/04/29 05:39:05;;;;;;;26.35;20.83;;;15.20;96.30;;;;;;4590017;19;20014;-19
2023/04/29 05:40:37;;;;;;;;;;;15.20;96.00;;;;;;4590605;19;20021;-19
2023/04/29 05:42:08;;;;;;;22.95;19.15;;;15.20;95.90;;;;;;4588432;19;19919;-18
2023/04/29 05:43:40;;;;;;;24.67;19.97;;;15.30;96.00;;;;;;4591127;19;20011;-19
2023/04/29 05:45:12;;;;;;;20.25;16.42;;;15.30;95.90;;;;;;4591168;19;20094;-20
2023/04/29 05:46:45;;;;;;;18.23;14.43;;;15.30;95.90;;;;;;4590972;19;20015;-20
2023/04/29 05:48:16;;;;;;;18.90;14.67;;;15.30;96.10;;;;;;4590478;19;20018;-19
2023/04/29 05:49:48;;;;;;;19.67;14.68;;;15.30;95.90;;;;;;4590869;19;20365;-19
2023/04/29 05:51:19;;;;;;;16.63;13.30;;;15.30;95.80;;;;;;4590126;19;20029;-19
2023/04/29 05:52:55;;;;;;;16.83;13.00;;;15.30;95.70;;;;;;4590075;19;20074;-19
2023/04/29 05:54:26;;;;;;;18.97;12.50;;;15.30;95.60;;;;;;4589703;19;20492;-19
2023/04/29 05:55:57;;;;;;;22.55;14.38;;;15.30;95.50;;;;;;4588344;19;20494;-20
2023/04/29 05:57:28;;;;;;;19.70;16.15;;;15.30;95.40;;;;;;4588254;19;20129;-21
2023/04/29 05:58:59;;;;;;;17.70;15.45;;;15.30;95.70;;;;;;4591779;19;20007;-19
2023/04/29 06:00:32;;;;;;;21.37;14.70;;;15.30;95.80;;;;;;4590234;19;20480;-20
2023/04/29 06:02:04;;;;;;;18.43;13.30;;;15.30;95.60;;;;;;4590877;19;20018;-19
2023/04/29 06:03:37;;;;;;;15.20;12.87;;;15.20;95.40;;;;;;4591038;19;20345;-20
2023/04/29 06:05:09;;;;;;;19.23;14.30;;;15.20;95.30;;;;;;4590370;19;20090;-19
2023/04/29 06:06:40;;;;;;;15.65;13.45;;;15.20;95.20;;;;;;4590355;19;20031;-18
2023/04/29 06:08:11;;;;;;;17.00;12.43;;;15.20;95.30;;;;;;4588755;19;20473;-19
2023/04/29 06:09:43;;;;;;;14.85;11.90;;;15.20;95.40;;;;;;4588604;19;20468;-19
2023/04/29 06:11:14;;;;;;;20.42;13.32;;;15.30;95.60;;;;;;4587796;19;20015;-19
2023/04/29 06:12:46;;;;;;;17.83;13.18;;;15.20;95.60;;;;;;4588614;19;20014;-20
2023/04/29 06:14:17;;;;;;;18.73;13.63;;;15.20;95.80;;;;;;4591057;19;20018;-20
2023/04/29 06:15:48;;;;;;;18.33;14.02;;;15.30;95.60;;;;;;4591550;19;20010;-18
2023/04/29 06:17:19;;;;;;;18.63;13.55;;;15.30;95.40;;;;;;4590614;19;20021;-20
2023/04/29 06:18:51;;;;;;;18.08;14.25;;;15.30;95.60;;;;;;4589526;19;20025;-19
2023/04/29 06:20:22;;;;;;;20.13;14.18;;;15.30;95.70;;;;;;4589678;19;20033;-19
2023/04/29 06:21:53;;;;;;;16.58;13.60;;;15.30;95.50;;;;;;4588900;19;20014;-19
2023/04/29 06:23:24;;;;;;;;;;;15.20;95.50;;;;;;4590687;19;20523;-19
2023/04/29 06:24:55;;;;;;;18.53;13.03;;;15.30;95.60;;;;;;4590316;19;19927;-20
2023/04/29 06:26:26;;;;;;;16.52;13.18;;;15.30;95.70;;;;;;4589514;19;20014;-20
2023/04/29 06:27:58;;;;;;;21.83;16.08;;;15.30;95.70;;;;;;4590087;19;20711;-18
2023/04/29 06:29:29;;;;;;;21.40;13.88;;;15.30;95.90;;;;;;4589708;19;20018;-20
2023/04/29 06:31:00;;;;;;;17.50;13.07;;;15.30;96.10;;;;;;4589543;19;20070;-19
2023/04/29 06:32:31;;;;;;;18.42;15.05;;;15.30;95.90;;;;;;4588460;19;20013;-19
2023/04/29 06:34:03;;;;;;;16.10;12.60;;;15.40;96.20;;;;;;4588461;19;20034;-19
2023/04/29 06:35:38;;;;;;;16.23;11.77;;;15.40;96.10;;;;;;4588535;19;20022;-19
2023/04/29 06:37:10;;;;;;;17.23;12.30;;;15.40;96.00;;;;;;4588720;19;20011;-20
2023/04/29 06:38:42;;;;;;;17.08;12.50;;;15.40;96.20;;;;;;4590716;19;20362;-19
2023/04/29 06:40:14;;;;;;;18.47;12.33;;;15.40;96.30;;;;;;4590826;19;20010;-20
2023/04/29 06:41:45;;;;;;;;;;;15.50;96.30;;;;;;4590238;19;20070;-19
2023/04/29 06:43:17;;;;;;;16.77;11.57;;;15.50;96.40;;;;;;4588746;19;19944;-19
2023/04/29 06:44:48;;;;;;;16.23;12.25;;;15.50;96.40;;;;;;4589130;19;20018;-19
2023/04/29 06:46:21;;;;;;;15.17;11.30;;;15.40;96.20;;;;;;4589879;19;20033;-19
2023/04/29 06:47:53;;;;;;;14.27;10.75;;;15.40;96.20;;;;;;4589695;19;20478;-20
2023/04/29 06:49:24;;;;;;;;;;;15.40;96.20;;;;;;4589406;19;20017;-18
2023/04/29 06:50:56;;;;;;;19.23;13.57;;;15.40;96.40;;;;;;4588500;19;19910;-19
2023/04/29 06:52:27;;;;;;;18.53;14.17;;;15.40;96.50;;;;;;4587891;19;20011;-19
2023/04/29 06:53:58;;;;;;;16.30;11.70;;;15.40;96.40;;;;;;4589769;19;20006;-19
2023/04/29 06:55:30;;;;;;;16.50;11.63;;;15.40;96.40;;;;;;4589409;19;20015;-19
2023/04/29 06:57:02;;;;;;;17.05;10.85;;;15.40;96.40;;;;;;4590299;19;20130;-19
2023/04/29 06:58:33;;;;;;;14.93;11.23;;;15.40;96.40;;;;;;4590435;19;20029;-19
2023/04/29 07:00:05;;;;;;;18.83;12.63;;;15.40;96.20;;;;;;4593260;19;20014;-20
2023/04/29 07:01:37;;;;;;;19.43;15.20;;;15.40;96.40;;;;;;4593466;19;20094;-19
2023/04/29 07:03:10;;;;;;;18.70;13.90;;;15.40;96.50;;;;;;4594688;19;20010;-19
2023/04/29 07:04:42;;;;;;;15.33;12.57;;;15.40;96.60;;;;;;4594458;19;20022;-19
2023/04/29 07:06:13;;;;;;;23.38;17.08;;;15.40;96.60;;;;;;4594477;19;20071;-20
2023/04/29 07:07:45;;;;;;;17.80;12.90;;;15.40;96.70;;;;;;4592757;19;20014;-20
2023/04/29 07:09:17;;;;;;;22.00;16.10;;;15.40;96.50;;;;;;4594949;19;20011;-20
2023/04/29 07:10:55;;;;;;;24.80;18.05;;;15.40;96.70;;;;;;4594686;19;20014;-20
2023/04/29 07:12:26;;;;;;;20.17;14.63;;;15.40;96.70;;;;;;4594829;19;20007;-19
2023/04/29 07:13:59;;;;;;;33.90;24.80;;;15.50;96.60;;;;;;4594524;19;20023;-20
2023/04/29 07:15:32;;;;;;;28.08;21.58;;;15.40;96.50;;;;;;4595144;19;20074;-19
2023/04/29 07:17:05;;;;;;;26.53;16.83;;;15.50;96.60;;;;;;4592769;19;20018;-19
2023/04/29 07:18:37;;;;;;;24.33;16.50;;;15.40;96.70;;;;;;4593409;19;20010;-19
2023/04/29 07:20:27;;;;;;;28.10;20.27;;;15.50;96.80;;;;;;4591720;19;20014;-19
2023/04/29 07:21:58;;;;;;;21.87;15.90;;;15.40;97.00;;;;;;4592088;19;20019;-19
2023/04/29 07:23:31;;;;;;;20.33;14.80;;;15.40;97.00;;;;;;4594026;19;20015;-19
2023/04/29 07:25:02;;;;;;;21.17;14.57;;;15.50;96.80;;;;;;4593636;19;20109;-19
2023/04/29 07:26:33;;;;;;;19.88;15.45;;;15.40;97.00;;;;;;4593335;19;20070;-20
2023/04/29 07:28:04;;;;;;;21.25;15.05;;;15.50;97.20;;;;;;4591908;19;20014;-19
2023/04/29 07:29:35;;;;;;;19.75;13.55;;;15.40;97.20;;;;;;4594421;19;20013;-19
2023/04/29 07:31:06;;;;;;;18.60;12.95;;;15.50;96.90;;;;;;4594341;19;20022;-20
2023/04/29 07:32:38;;;;;;;20.35;15.63;;;15.50;96.70;;;;;;4592958;19;20018;-19
2023/04/29 07:34:09;;;;;;;20.63;15.23;;;15.50;96.90;;;;;;4592651;19;20069;-19
2023/04/29 07:35:42;;;;;;;19.25;12.25;;;15.50;96.80;;;;;;4592457;19;20011;-19
2023/04/29 07:37:15;;;;;;;16.20;11.93;;;15.40;96.90;;;;;;4592134;19;20018;-20
2023/04/29 07:38:46;;;;;;;14.43;11.63;;;15.50;96.90;;;;;;4591757;19;20021;-19
2023/04/29 07:40:17;;;;;;;17.00;11.98;;;15.50;96.70;;;;;;4594673;19;20014;-20
2023/04/29 07:41:49;;;;;;;19.35;11.95;;;15.50;96.80;;;;;;4592434;19;20038;-23
2023/04/29 07:43:22;;;;;;;19.10;15.37;;;15.60;96.80;;;;;;4592813;19;20011;-20
2023/04/29 07:44:53;;;;;;;17.65;14.07;;;15.70;96.80;;;;;;4592958;19;20025;-20
2023/04/29 07:46:24;;;;;;;20.17;13.57;;;15.70;96.80;;;;;;4592238;19;20010;-21
2023/04/29 07:47:55;;;;;;;15.48;12.60;;;15.80;96.80;;;;;;4593249;19;20544;-21
2023/04/29 07:49:27;;;;;;;20.13;13.60;;;15.80;96.80;;;;;;4592681;19;20113;-19
2023/04/29 07:50:59;;;;;;;20.60;13.50;;;15.80;96.90;;;;;;4592416;19;20078;-19
2023/04/29 07:52:30;;;;;;;15.23;11.93;;;15.90;96.80;;;;;;4592077;19;20568;-19
2023/04/29 07:54:01;;;;;;;18.33;12.15;;;15.90;96.90;;;;;;4595152;19;20003;-20
2023/04/29 07:55:32;;;;;;;;;;;16.00;96.90;;;;;;4595045;19;20313;-19
2023/04/29 07:57:03;;;;;;;17.13;12.47;;;16.00;96.90;;;;;;4593128;19;19915;-19
2023/04/29 07:58:35;;;;;;;15.50;11.80;;;16.10;97.10;;;;;;4593097;19;20022;-20
2023/04/29 08:00:09;;;;;;;16.98;11.70;;;16.10;97.10;;;;;;4592032;19;20022;-20
2023/04/29 08:01:41;;;;;;;18.97;12.87;;;16.10;97.20;;;;;;4591096;19;20007;-19
2023/04/29 08:03:12;;;;;;;16.77;12.93;;;16.10;97.10;;;;;;4591103;19;20015;-19
2023/04/29 08:04:45;;;;;;;19.33;12.70;;;16.10;97.00;;;;;;4591430;19;20137;-19
2023/04/29 08:06:19;;;;;;;15.55;13.75;;;16.10;96.90;;;;;;4592100;19;20010;-20
2023/04/29 08:07:50;;;;;;;17.40;14.93;;;14.70;97.60;;;;;;4591446;19;20037;-19
2023/04/29 08:09:24;;;;;;;18.80;15.53;;;13.70;99.50;;;;;;4592566;19;20460;-19
2023/04/29 08:10:57;;;;;;;17.40;13.03;;;13.20;99.90;;;;;;4593205;19;20468;-18
2023/04/29 08:12:28;;;;;;;19.05;14.88;;;13.00;99.90;;;;;;4592731;19;20445;-19
2023/04/29 08:13:59;;;;;;;19.98;14.98;;;12.90;99.90;;;;;;4592910;19;20014;-19
2023/04/29 08:15:32;;;;;;;22.87;17.37;;;13.00;99.90;;;;;;4592747;19;20014;-19
2023/04/29 08:17:03;;;;;;;29.90;21.63;;;12.90;99.90;;;;;;4592183;19;20452;-18
2023/04/29 08:18:35;;;;;;;36.30;26.25;;;12.90;99.90;;;;;;4591970;19;20014;-18
2023/04/29 08:20:08;;;;;;;30.17;21.90;;;12.90;99.90;;;;;;4591855;19;20018;-19
2023/04/29 08:21:40;;;;;;;32.73;22.93;;;12.90;99.90;;;;;;4589876;19;20014;-18
2023/04/29 08:23:11;;;;;;;20.27;17.20;;;12.80;99.90;;;;;;4591420;19;20441;-19
2023/04/29 08:24:44;;;;;;;20.42;16.08;;;12.80;99.90;;;;;;4593873;19;20472;-19
2023/04/29 08:26:16;;;;;;;18.50;15.83;;;12.80;99.90;;;;;;4593727;19;20019;-19
2023/04/29 08:27:48;;;;;;;21.48;19.00;;;12.80;99.90;;;;;;4593161;19;20560;-19
2023/04/29 08:29:20;;;;;;;17.30;14.50;;;12.80;99.90;;;;;;4592111;19;20018;-19
2023/04/29 08:30:51;;;;;;;27.13;22.45;;;12.80;99.90;;;;;;4592047;19;20452;-20
2023/04/29 08:32:22;;;;;;;20.05;16.65;;;12.80;99.90;;;;;;4591316;19;20036;-19
2023/04/29 08:33:54;;;;;;;17.30;15.45;;;12.70;99.90;;;;;;4588737;19;20003;-19
2023/04/29 08:35:25;;;;;;;19.52;16.65;;;12.70;99.90;;;;;;4589990;19;20015;-19
2023/04/29 08:36:57;;;;;;;19.38;16.38;;;12.80;99.90;;;;;;4592701;19;20011;-18
2023/04/29 08:38:29;;;;;;;19.77;17.48;;;12.70;99.90;;;;;;4592121;19;20011;-19
2023/04/29 08:40:00;;;;;;;15.57;13.50;;;12.70;99.90;;;;;;4591787;19;20026;-19
2023/04/29 08:41:32;;;;;;;16.73;14.60;;;12.70;99.90;;;;;;4590218;19;21124;-18
2023/04/29 08:43:04;;;;;;;18.58;14.75;;;12.70;99.90;;;;;;4592402;19;20367;-18
2023/04/29 08:44:35;;;;;;;15.77;13.83;;;12.80;99.90;;;;;;4591822;19;20377;-19
2023/04/29 08:46:07;;;;;;;18.43;15.70;;;12.80;99.90;;;;;;4590825;19;20525;-19
2023/04/29 08:47:38;;;;;;;17.48;14.85;;;12.80;99.90;;;;;;4591455;19;20424;-19
2023/04/29 08:49:09;;;;;;;17.40;15.60;;;12.70;99.90;;;;;;4590264;19;20066;-19
2023/04/29 08:50:41;;;;;;;;;;;12.80;99.90;;;;;;4591725;19;20014;-20
2023/04/29 08:52:12;;;;;;;18.13;16.23;;;12.70;99.90;;;;;;4592444;19;19931;-19
2023/04/29 08:53:45;;;;;;;21.57;19.27;;;12.70;99.90;;;;;;4592456;19;20018;-19
2023/04/29 08:55:17;;;;;;;22.23;18.80;;;12.70;99.90;;;;;;4591302;19;20464;-18
2023/04/29 08:56:48;;;;;;;21.00;18.70;;;12.70;99.90;;;;;;4591865;19;20070;-19
2023/04/29 08:58:19;;;;;;;23.77;21.30;;;12.70;99.90;;;;;;4591848;19;20504;-19
2023/04/29 08:59:50;;;;;;;21.77;19.20;;;12.80;99.90;;;;;;4590309;19;20435;-19
2023/04/29 09:01:22;;;;;;;;;;;12.80;99.90;;;;;;4589241;19;20018;-18
2023/04/29 09:02:55;;;;;;;38.50;32.37;;;12.80;99.90;;;;;;4590162;19;19911;-19
2023/04/29 09:04:45;;;;;;;25.48;20.50;;;12.80;99.90;;;;;;4589536;19;20458;-19
2023/04/29 09:06:17;;;;;;;19.47;15.97;;;12.80;99.90;;;;;;4590482;19;20015;-20
2023/04/29 09:07:49;;;;;;;28.98;24.85;;;12.80;99.90;;;;;;4590587;19;20465;-19
2023/04/29 09:09:20;;;;;;;20.77;18.67;;;12.80;99.90;;;;;;4589083;19;20010;-19
2023/04/29 09:10:52;;;;;;;21.02;18.77;;;12.80;99.90;;;;;;4591596;19;20441;-19
2023/04/29 09:12:23;;;;;;;;;;;12.80;99.90;;;;;;4592918;19;20489;-19
2023/04/29 09:13:59;;;;;;;17.30;14.67;;;12.80;99.90;;;;;;4590909;19;20337;-19
2023/04/29 09:15:40;;;;;;;17.37;13.77;;;12.80;99.90;;;;;;4590745;19;20570;-19
2023/04/29 09:17:15;;;;;;;17.40;14.23;;;12.80;99.90;;;;;;4591715;19;20469;-19
2023/04/29 09:18:47;;;;;;;14.60;13.10;;;12.80;99.90;;;;;;4591487;19;20819;-19
2023/04/29 09:20:21;;;;;;;17.42;14.52;;;12.80;99.90;;;;;;4591071;19;20572;-18
2023/04/29 09:21:56;;;;;;;17.10;14.97;;;12.80;99.90;;;;;;4587897;19;20025;-19
2023/04/29 09:23:36;;;;;;;20.30;17.80;;;12.80;99.90;;;;;;4589172;19;20441;-19
2023/04/29 09:25:14;;;;;;;24.43;21.63;;;12.80;99.90;;;;;;4590250;19;20489;-19
2023/04/29 09:26:45;;;;;;;20.43;17.37;;;12.80;99.90;;;;;;4590029;19;20449;-19
2023/04/29 09:28:17;;;;;;;23.63;20.15;;;12.80;99.90;;;;;;4589966;19;20436;-19
2023/04/29 09:30:00;;;;;;;24.37;20.00;;;12.80;99.90;;;;;;4589415;19;20456;-19
2023/04/29 09:31:32;;;;;;;26.43;23.23;;;12.80;99.90;;;;;;4592091;19;20779;-20
2023/04/29 09:33:07;;;;;;;22.85;19.73;;;12.90;99.90;;;;;;4591478;19;20456;-19
2023/04/29 09:34:40;;;;;;;21.47;16.23;;;12.90;99.90;;;;;;4590324;19;20040;-19
2023/04/29 09:36:11;;;;;;;17.17;14.57;;;12.90;99.90;;;;;;4589993;19;20480;-19
2023/04/29 09:37:43;;;;;;;18.03;16.07;;;12.90;99.90;;;;;;4591430;19;21013;-20
2023/04/29 09:39:16;;;;;;;16.75;14.48;;;12.90;99.90;;;;;;4591682;19;20504;-19
2023/04/29 09:40:47;;;;;;;19.67;14.00;;;12.90;99.90;;;;;;4590817;19;20010;-19
2023/04/29 09:42:18;;;;;;;17.25;14.35;;;13.00;99.90;;;;;;4588864;19;21327;-19
2023/04/29 09:44:03;;;;;;;15.75;14.05;;;13.00;99.90;;;;;;4589351;19;20010;-19
2023/04/29 09:45:38;;;;;;;17.60;14.53;;;13.00;99.90;;;;;;4589624;19;20062;-19
2023/04/29 09:47:10;;;;;;;16.17;14.47;;;13.00;99.90;;;;;;4591095;19;20507;-20
2023/04/29 09:48:41;;;;;;;15.68;13.20;;;13.00;99.90;;;;;;4591695;19;20491;-19
2023/04/29 09:50:12;;;;;;;15.15;13.55;;;13.00;99.90;;;;;;4590347;19;20014;-19
2023/04/29 09:51:51;;;;;;;16.03;14.33;;;13.00;99.90;;;;;;4590612;19;20507;-19
2023/04/29 09:53:28;;;;;;;21.33;19.03;;;13.10;99.90;;;;;;4591407;19;20421;-19
2023/04/29 09:55:03;;;;;;;18.30;16.30;;;13.10;99.90;;;;;;4590943;19;20495;-18
2023/04/29 09:56:48;;;;;;;19.23;16.27;;;13.10;99.90;;;;;;4590004;19;20485;-19
2023/04/29 09:58:36;;;;;;;16.70;14.87;;;13.10;99.90;;;;;;4590286;19;20441;-19
2023/04/29 10:00:07;;;;;;;15.30;12.87;;;13.10;99.90;;;;;;4590293;19;20448;-19
2023/04/29 10:01:40;;;;;;;16.57;14.60;;;13.10;99.90;;;;;;4588974;19;20484;-20
2023/04/29 10:03:11;;;;;;;17.77;14.10;;;13.10;99.90;;;;;;4589782;19;20866;-19
2023/04/29 10:04:46;;;;;;;14.35;12.60;;;13.10;99.90;;;;;;4588358;19;20031;-20
2023/04/29 10:06:19;;;;;;;22.07;17.53;;;13.10;99.90;;;;;;4588367;19;20014;-18
2023/04/29 10:07:51;;;;;;;20.25;15.85;;;13.10;99.90;;;;;;4589319;19;20488;-19
2023/04/29 10:09:22;;;;;;;19.00;17.00;;;13.10;99.90;;;;;;4589508;19;20018;-19
2023/04/29 10:10:58;;;;;;;18.10;14.80;;;13.10;99.90;;;;;;4588991;19;20117;-19
2023/04/29 10:12:29;;;;;;;18.57;15.53;;;13.10;99.90;;;;;;4589243;19;20010;-19
2023/04/29 10:14:02;;;;;;;19.08;16.95;;;13.20;99.90;;;;;;4588661;19;20448;-18
2023/04/29 10:15:43;;;;;;;17.17;14.20;;;13.20;99.90;;;;;;4588675;19;20027;-19
2023/04/29 10:17:40;;;;;;;17.25;14.77;;;13.20;99.90;;;;;;4588164;19;20456;-19
2023/04/29 10:19:12;;;;;;;20.13;17.87;;;13.20;99.90;;;;;;4589086;19;20034;-19
2023/04/29 10:20:46;;;;;;;18.90;16.63;;;13.20;99.90;;;;;;4588137;19;20511;-19
2023/04/29 10:22:37;;;;;;;22.93;19.30;;;13.30;99.90;;;;;;4588093;19;20496;-19
2023/04/29 10:24:09;;;;;;;20.92;18.27;;;13.30;99.90;;;;;;4588230;19;21104;-20
2023/04/29 10:25:43;;;;;;;29.95;22.20;;;13.30;99.90;;;;;;4588194;19;20030;-18
2023/04/29 10:27:16;;;;;;;34.97;25.17;;;13.30;99.90;;;;;;4587930;19;20015;-18
2023/04/29 10:28:47;;;;;;;21.88;17.92;;;13.30;99.90;;;;;;4587538;19;20503;-19
2023/04/29 10:30:19;;;;;;;25.25;20.73;;;13.30;99.90;;;;;;4587209;19;20015;-19
2023/04/29 10:31:50;;;;;;;25.03;19.90;;;13.20;99.90;;;;;;4589069;19;20366;-19
2023/04/29 10:33:22;;;;;;;20.58;17.35;;;13.20;99.90;;;;;;4588322;19;20468;-19
2023/04/29 10:34:54;;;;;;;17.38;14.88;;;13.20;99.90;;;;;;4586484;19;20477;-19
2023/04/29 10:36:27;;;;;;;17.70;15.80;;;13.30;99.90;;;;;;4588390;19;20010;-19
2023/04/29 10:37:58;;;;;;;19.17;16.20;;;13.30;99.90;;;;;;4587411;19;20476;-19
2023/04/29 10:39:46;;;;;;;19.45;15.52;;;13.30;99.90;;;;;;4586365;19;20808;-19
2023/04/29 10:41:24;;;;;;;20.70;16.83;;;13.30;99.90;;;;;;4586651;19;20434;-23
2023/04/29 10:42:56;;;;;;;22.60;19.77;;;13.30;99.90;;;;;;4587082;19;21106;-19
2023/04/29 10:44:28;;;;;;;22.87;20.33;;;13.30;99.90;;;;;;4586976;19;20453;-19
2023/04/29 10:46:18;;;;;;;22.45;20.02;;;13.30;99.90;;;;;;4585883;19;20526;-19
2023/04/29 10:48:01;;;;;;;16.87;14.57;;;13.40;99.90;;;;;;4587094;19;20443;-19
2023/04/29 10:49:33;;;;;;;19.27;16.37;;;13.40;99.90;;;;;;4586701;19;20465;-19
2023/04/29 10:51:06;;;;;;;20.10;15.67;;;13.40;99.90;;;;;;4586343;19;20436;-18
2023/04/29 10:52:56;;;;;;;17.52;15.73;;;13.40;99.90;;;;;;4588416;19;20568;-18
2023/04/29 10:54:28;;;;;;;20.13;15.77;;;13.40;99.90;;;;;;4586419;19;20022;-19
2023/04/29 10:56:11;;;;;;;20.17;16.55;;;13.40;99.90;;;;;;4588296;19;20904;-19
2023/04/29 10:57:43;;;;;;;17.47;15.27;;;13.40;99.90;;;;;;4588358;19;20019;-19
2023/04/29 10:59:18;;;;;;;16.75;15.02;;;13.40;99.90;;;;;;4588812;19;21040;-19
2023/04/29 11:00:50;;;;;;;15.50;13.83;;;13.40;99.90;;;;;;4588414;19;20081;-19
2023/04/29 11:02:22;;;;;;;16.63;14.30;;;13.40;99.90;;;;;;4589237;19;21344;-19
2023/04/29 11:04:00;;;;;;;16.75;13.77;;;13.50;99.90;;;;;;4589162;19;20457;-19
2023/04/29 11:05:35;;;;;;;15.70;13.57;;;13.60;99.90;;;;;;4590213;19;20018;-19
2023/04/29 11:07:07;;;;;;;14.80;13.07;;;13.60;99.90;;;;;;4588232;19;20461;-20
2023/04/29 11:08:39;;;;;;;15.17;13.60;;;13.70;99.90;;;;;;4588899;19;20014;-19
2023/04/29 11:10:11;;;;;;;16.00;14.05;;;13.80;99.90;;;;;;4588819;19;20465;-19
2023/04/29 11:11:48;;;;;;;16.43;14.03;;;13.80;99.90;;;;;;4587874;19;20026;-19
2023/04/29 11:13:38;;;;;;;16.60;12.77;;;13.80;99.90;;;;;;4588978;19;20444;-20
2023/04/29 11:15:10;;;;;;;15.20;12.87;;;13.90;99.90;;;;;;4588465;19;20473;-20
2023/04/29 11:16:51;;;;;;;14.53;11.60;;;14.00;99.90;;;;;;4587361;19;20572;-20
2023/04/29 11:18:22;;;;;;;15.00;13.00;;;14.00;99.90;;;;;;4589604;19;20903;-19
2023/04/29 11:19:54;;;;;;;15.95;13.63;;;14.00;99.90;;;;;;4587965;19;20475;-20
2023/04/29 11:21:26;;;;;;;15.53;12.50;;;14.00;99.90;;;;;;4587082;19;20022;-19
2023/04/29 11:22:57;;;;;;;16.80;14.02;;;14.00;99.90;;;;;;4586653;19;20018;-20
2023/04/29 11:24:28;;;;;;;18.02;13.18;;;14.10;99.90;;;;;;4589153;19;20031;-21
2023/04/29 11:26:00;;;;;;;16.40;13.65;;;14.10;99.90;;;;;;4588713;19;20019;-19
2023/04/29 11:27:33;;;;;;;18.38;15.02;;;14.10;99.90;;;;;;4588915;19;20025;-19
2023/04/29 11:29:05;;;;;;;16.47;13.60;;;14.10;99.90;;;;;;4589264;19;20007;-20
2023/04/29 11:30:36;;;;;;;16.85;13.25;;;14.20;99.90;;;;;;4587519;19;20740;-19
2023/04/29 11:32:07;;;;;;;14.52;13.02;;;14.30;99.90;;;;;;4586625;19;20021;-20
2023/04/29 11:33:38;;;;;;;15.85;12.95;;;14.40;99.90;;;;;;4586593;19;20015;-19
2023/04/29 11:35:14;;;;;;;17.00;14.40;;;14.40;99.90;;;;;;4588314;19;20042;-19
2023/04/29 11:36:46;;;;;;;28.33;21.60;;;14.40;99.90;;;;;;4589394;19;20018;-20
2023/04/29 11:38:17;;;;;;;18.23;15.98;;;14.40;99.90;;;;;;4589396;19;20015;-20
2023/04/29 11:39:49;;;;;;;19.52;15.25;;;14.50;99.90;;;;;;4588044;19;20011;-19
2023/04/29 11:41:21;;;;;;;19.33;15.00;;;14.50;99.90;;;;;;4587410;19;20042;-20
2023/04/29 11:42:52;;;;;;;14.32;12.13;;;14.50;99.90;;;;;;4588516;19;20109;-20
2023/04/29 11:44:23;;;;;;;13.82;10.45;;;14.50;99.90;;;;;;4590008;19;20361;-20
2023/04/29 11:45:56;;;;;;;14.97;10.47;;;14.60;99.90;;;;;;4591804;19;20018;-19
2023/04/29 11:47:28;;;;;;;11.32;9.57;;;14.80;99.90;;;;;;4594312;19;20010;-20
2023/04/29 11:48:59;;;;;;;13.77;9.93;;;15.00;99.90;;;;;;4594173;19;20010;-19
2023/04/29 11:50:31;;;;;;;;;;;15.20;99.90;;;;;;4594181;19;20011;-19
2023/04/29 11:52:02;;;;;;;10.48;8.13;;;15.30;99.90;;;;;;4593790;19;19922;-20
2023/04/29 11:53:35;;;;;;;12.10;8.00;;;15.50;99.90;;;;;;4593093;19;20042;-20
2023/04/29 11:55:10;;;;;;;11.85;7.68;;;15.60;99.90;;;;;;4592246;19;20086;-19
2023/04/29 11:56:42;;;;;;;11.63;7.87;;;15.70;99.90;;;;;;4591835;19;20017;-20
2023/04/29 11:58:16;;;;;;;10.93;7.65;;;15.80;99.90;;;;;;4592290;19;20018;-21
2023/04/29 11:59:48;;;;;;;9.98;7.63;;;15.80;99.90;;;;;;4591881;19;20024;-20
2023/04/29 12:01:20;;;;;;;9.93;7.53;;;15.90;99.90;;;;;;4592299;19;20011;-20
2023/04/29 12:02:51;;;;;;;;;;;16.00;99.90;;;;;;4593812;19;20472;-20
2023/04/29 12:04:22;;;;;;;12.50;8.77;;;16.10;99.90;;;;;;4593707;19;20276;-19
2023/04/29 12:05:54;;;;;;;10.40;7.70;;;16.10;99.90;;;;;;4594267;19;20069;-19
2023/04/29 12:07:26;;;;;;;10.52;7.80;;;16.20;99.90;;;;;;4592712;19;20053;-21
2023/04/29 12:08:57;;;;;;;;;;;16.20;99.90;;;;;;4594213;19;20018;-20
2023/04/29 12:10:28;;;;;;;11.45;8.20;;;16.30;99.90;;;;;;4593529;19;20316;-20
2023/04/29 12:12:01;;;;;;;8.93;6.97;;;16.30;99.90;;;;;;4591421;19;20044;-19
2023/04/29 12:13:35;;;;;;;11.05;8.25;;;16.30;99.90;;;;;;4591250;19;20026;-19
2023/04/29 12:15:08;;;;;;;9.75;7.43;;;16.30;99.90;;;;;;4592026;19;20084;-19
2023/04/29 12:16:41;;;;;;;10.38;7.65;;;16.40;99.90;;;;;;4592710;19;20007;-20
2023/04/29 12:18:13;;;;;;;14.63;8.27;;;16.40;99.90;;;;;;4592782;19;20014;-20
2023/04/29 12:19:44;;;;;;;9.27;7.45;;;16.50;99.90;;;;;;4592364;19;20011;-20
2023/04/29 12:21:16;;;;;;;10.38;7.35;;;16.50;99.90;;;;;;4591570;19;20015;-20
2023/04/29 12:22:48;;;;;;;10.48;7.90;;;16.60;99.90;;;;;;4592811;19;20472;-20
2023/04/29 12:24:20;;;;;;;10.00;6.97;;;16.70;99.90;;;;;;4592986;19;20018;-19
2023/04/29 12:25:52;;;;;;;10.93;7.78;;;16.70;99.90;;;;;;4592969;19;20031;-20
2023/04/29 12:27:25;;;;;;;10.85;7.70;;;16.70;99.90;;;;;;4591647;19;20018;-20
2023/04/29 15:26:52;;;;;;;6.40;4.85;;;18.40;99.90;;;;;;4568405;19;20018;-19
2023/04/29 15:28:24;;;;;;;;;;;18.40;99.90;;;;;;4592001;19;20023;-19
2023/04/29 15:29:58;;;;;;;8.20;6.90;;;16.40;99.90;;;;;;4592593;19;19970;-20
2023/04/29 15:31:29;;;;;;;7.57;6.75;;;15.70;99.90;;;;;;4594168;19;20018;-20
2023/04/29 15:34:51;;;;;;;8.70;7.47;;;15.40;99.90;;;;;;4594178;19;20007;-20
2023/04/29 15:36:27;;;;;;;10.73;8.32;;;15.40;99.90;;;;;;4592724;19;20463;-19
2023/04/29 15:37:59;;;;;;;8.70;6.87;;;15.40;99.90;;;;;;4592463;19;20476;-20
2023/04/29 15:39:30;;;;;;;10.07;8.50;;;15.40;99.90;;;;;;4592654;19;20069;-19
2023/04/29 15:41:02;;;;;;;9.25;8.30;;;15.40;99.90;;;;;;4591568;19;20010;-19
2023/04/29 15:42:33;;;;;;;11.00;8.80;;;15.40;99.90;;;;;;4590129;19;20015;-19
2023/04/29 15:44:05;;;;;;;9.65;7.65;;;15.40;99.90;;;;;;4592091;19;20352;-19
2023/04/29 15:45:36;;;;;;;8.57;7.05;;;15.40;99.90;;;;;;4591095;19;20014;-20